createdAt,value
2019-02-24T00:00:45.098Z,4.80
2019-02-24T00:03:15.929Z,4.80
2019-02-24T00:05:46.865Z,4.80
2019-02-24T00:08:17.835Z,4.80
2019-02-24T00:10:48.462Z,4.80
2019-02-24T00:13:19.152Z,4.80
2019-02-24T00:15:50.485Z,4.80
2019-02-24T00:18:22.800Z,4.80
2019-02-24T00:20:54.617Z,4.80
2019-02-24T00:23:25.482Z,4.80
2019-02-24T00:25:57.442Z,4.80
2019-02-24T00:28:28.279Z,4.80
2019-02-24T00:30:59.113Z,4.80
2019-02-24T00:33:29.938Z,4.80
2019-02-24T00:36:01.078Z,4.80
2019-02-24T00:38:32.326Z,4.80
2019-02-24T00:41:03.079Z,4.80
2019-02-24T00:43:33.789Z,4.80
2019-02-24T00:46:04.744Z,4.80
2019-02-24T00:48:35.574Z,4.80
2019-02-24T00:51:07.390Z,4.80
2019-02-24T00:53:38.046Z,4.80
2019-02-24T00:56:08.861Z,4.80
2019-02-24T00:58:39.547Z,4.80
2019-02-24T01:01:10.077Z,4.80
2019-02-24T01:03:41.206Z,4.80
2019-02-24T01:06:12.386Z,4.80
2019-02-24T01:08:43.282Z,4.80
2019-02-24T01:11:14.178Z,4.80
2019-02-24T01:13:44.862Z,4.80
2019-02-24T01:16:15.714Z,4.80
2019-02-24T01:18:46.654Z,4.80
2019-02-24T01:21:17.696Z,4.80
2019-02-24T01:23:48.406Z,4.80
2019-02-24T01:26:19.058Z,4.80
2019-02-24T01:28:50.701Z,4.80
2019-02-24T01:31:21.251Z,4.80
2019-02-24T01:33:51.872Z,4.90
2019-02-24T01:36:22.838Z,4.90
2019-02-24T01:38:53.878Z,4.90
2019-02-24T01:41:24.433Z,4.90
2019-02-24T01:43:55.330Z,4.90
2019-02-24T01:46:25.855Z,4.90
2019-02-24T01:48:56.472Z,4.90
2019-02-24T01:51:27.225Z,4.90
2019-02-24T01:53:58.981Z,4.90
2019-02-24T01:56:29.722Z,4.90
2019-02-24T01:59:00.895Z,4.90
2019-02-24T02:01:31.488Z,4.90
2019-02-24T02:04:02.012Z,4.90
2019-02-24T02:06:32.639Z,4.90
2019-02-24T02:09:03.211Z,4.90
2019-02-24T02:11:35.697Z,4.90
2019-02-24T02:14:06.207Z,4.90
2019-02-24T02:16:37.072Z,4.90
2019-02-24T02:19:07.716Z,4.90
2019-02-24T02:21:38.514Z,4.90
2019-02-24T02:24:09.227Z,4.90
2019-02-24T02:26:40.290Z,4.90
2019-02-24T02:29:10.898Z,4.90
2019-02-24T02:31:41.916Z,4.90
2019-02-24T02:34:13.990Z,4.90
2019-02-24T02:36:45.066Z,4.90
2019-02-24T02:39:15.791Z,4.90
2019-02-24T02:41:46.726Z,4.90
2019-02-24T02:44:20.893Z,4.90
2019-02-24T02:46:51.788Z,4.90
2019-02-24T02:49:22.890Z,4.90
2019-02-24T02:51:53.667Z,4.90
2019-02-24T02:54:24.595Z,4.90
2019-02-24T02:56:55.724Z,4.90
2019-02-24T02:59:26.594Z,4.90
2019-02-24T03:01:57.243Z,4.90
2019-02-24T03:04:28.567Z,4.90
2019-02-24T03:07:17.991Z,4.90
2019-02-24T03:09:48.678Z,4.90
2019-02-24T03:12:19.838Z,4.90
2019-02-24T03:14:50.543Z,4.90
2019-02-24T03:17:21.466Z,4.90
2019-02-24T03:19:52.262Z,4.90
2019-02-24T03:22:23.772Z,4.90
2019-02-24T03:24:54.603Z,4.90
2019-02-24T03:27:25.342Z,4.90
2019-02-24T03:29:56.024Z,4.90
2019-02-24T03:32:27.029Z,4.90
2019-02-24T03:34:57.717Z,4.90
2019-02-24T03:37:28.301Z,4.90
2019-02-24T03:39:59.532Z,4.90
2019-02-24T03:42:30.187Z,4.90
2019-02-24T03:45:01.313Z,4.90
2019-02-24T03:47:32.062Z,4.90
2019-02-24T03:50:02.585Z,4.90
2019-02-24T03:52:33.309Z,4.90
2019-02-24T03:55:04.631Z,4.90
2019-02-24T03:57:35.498Z,4.90
2019-02-24T04:00:06.535Z,4.90
2019-02-24T04:02:37.434Z,4.90
2019-02-24T04:05:08.241Z,4.90
2019-02-24T04:07:39.414Z,4.90
2019-02-24T04:10:10.040Z,4.90
2019-02-24T04:12:41.043Z,4.90
2019-02-24T04:15:11.886Z,4.90
2019-02-24T04:17:42.721Z,4.90
2019-02-24T04:20:14.622Z,4.90
2019-02-24T04:22:45.320Z,4.90
2019-02-24T04:25:16.600Z,4.90
2019-02-24T04:27:47.291Z,4.90
2019-02-24T04:30:18.231Z,4.90
2019-02-24T04:32:49.382Z,4.90
2019-02-24T04:35:20.325Z,4.90
2019-02-24T04:37:50.949Z,4.90
2019-02-24T04:40:21.587Z,4.90
2019-02-24T04:42:52.360Z,4.90
2019-02-24T04:45:22.949Z,4.90
2019-02-24T04:47:53.698Z,4.90
2019-02-24T04:50:25.727Z,4.90
2019-02-24T04:52:56.977Z,4.90
2019-02-24T04:55:27.829Z,4.90
2019-02-24T04:57:59.286Z,4.90
2019-02-24T05:00:30.051Z,4.90
2019-02-24T05:03:00.581Z,4.90
2019-02-24T05:05:31.568Z,4.90
2019-02-24T05:08:02.317Z,4.90
2019-02-24T05:10:32.935Z,4.90
2019-02-24T05:13:05.483Z,4.90
2019-02-24T05:15:36.275Z,4.90
2019-02-24T05:18:08.252Z,4.90
2019-02-24T05:20:38.850Z,4.90
2019-02-24T05:23:09.936Z,4.90
2019-02-24T05:25:40.552Z,4.90
2019-02-24T05:28:12.733Z,4.90
2019-02-24T05:30:43.326Z,4.90
2019-02-24T05:33:15.565Z,4.90
2019-02-24T05:35:46.218Z,4.90
2019-02-24T05:38:16.884Z,4.90
2019-02-24T05:40:47.622Z,4.90
2019-02-24T05:43:18.591Z,4.90
2019-02-24T05:45:49.219Z,4.90
2019-02-24T05:48:19.839Z,4.90
2019-02-24T05:50:50.447Z,4.90
2019-02-24T05:53:20.929Z,4.90
2019-02-24T05:55:51.747Z,5.00
2019-02-24T05:58:22.631Z,5.00
2019-02-24T06:00:53.514Z,5.00
2019-02-24T06:03:26.708Z,5.00
2019-02-24T06:05:57.626Z,5.00
2019-02-24T06:08:28.659Z,5.00
2019-02-24T06:10:59.481Z,5.00
2019-02-24T06:13:30.320Z,5.00
2019-02-24T06:16:01.021Z,5.00
2019-02-24T06:18:32.103Z,5.00
2019-02-24T06:21:02.715Z,5.00
2019-02-24T06:23:33.507Z,5.00
2019-02-24T06:26:06.289Z,5.00
2019-02-24T06:28:37.306Z,5.00
2019-02-24T06:31:10.072Z,5.00
2019-02-24T06:33:40.932Z,5.00
2019-02-24T06:36:11.747Z,5.00
2019-02-24T06:38:42.408Z,5.00
2019-02-24T06:41:13.338Z,5.00
2019-02-24T06:43:44.206Z,5.00
2019-02-24T06:46:14.738Z,5.00
2019-02-24T06:48:45.847Z,5.10
2019-02-24T06:51:18.072Z,5.10
2019-02-24T06:53:48.590Z,5.10
2019-02-24T06:56:19.153Z,5.10
2019-02-24T06:58:49.815Z,5.10
2019-02-24T07:01:22.623Z,5.20
2019-02-24T07:03:54.622Z,5.20
2019-02-24T07:06:25.550Z,5.20
2019-02-24T07:08:57.636Z,5.20
2019-02-24T07:11:28.614Z,5.30
2019-02-24T07:14:01.922Z,5.30
2019-02-24T07:16:32.771Z,5.30
2019-02-24T07:19:03.889Z,5.40
2019-02-24T07:21:34.867Z,5.40
2019-02-24T07:24:06.783Z,5.40
2019-02-24T07:26:37.397Z,5.40
2019-02-24T07:29:07.854Z,5.50
2019-02-24T07:31:38.534Z,5.50
2019-02-24T07:34:09.314Z,5.50
2019-02-24T07:36:39.849Z,5.60
2019-02-24T07:39:10.711Z,5.70
2019-02-24T07:41:41.259Z,5.70
2019-02-24T07:44:11.809Z,5.80
2019-02-24T07:46:42.629Z,5.90
2019-02-24T07:49:14.531Z,5.90
2019-02-24T07:51:45.690Z,6.00
2019-02-24T07:54:16.482Z,6.10
2019-02-24T07:56:47.403Z,6.10
2019-02-24T07:59:24.424Z,6.20
2019-02-24T08:01:57.370Z,6.20
2019-02-24T08:04:27.967Z,6.20
2019-02-24T08:06:58.923Z,6.20
2019-02-24T08:09:30.054Z,6.30
2019-02-24T08:12:00.822Z,6.40
2019-02-24T08:14:31.922Z,6.50
2019-02-24T08:17:02.526Z,6.60
2019-02-24T08:19:33.614Z,6.60
2019-02-24T08:22:06.223Z,6.80
2019-02-24T08:24:37.429Z,7.00
2019-02-24T08:27:08.255Z,7.10
2019-02-24T08:29:39.178Z,7.20
2019-02-24T08:32:11.726Z,7.40
2019-02-24T08:34:42.976Z,7.50
2019-02-24T08:37:15.546Z,7.70
2019-02-24T08:39:46.246Z,7.80
2019-02-24T08:42:16.898Z,7.90
2019-02-24T08:44:49.530Z,7.90
2019-02-24T08:47:20.473Z,8.10
2019-02-24T08:49:51.233Z,8.00
2019-02-24T08:52:22.058Z,8.00
2019-02-24T08:54:53.032Z,8.00
2019-02-24T08:57:23.786Z,8.00
2019-02-24T08:59:54.418Z,7.90
2019-02-24T09:02:28.508Z,8.00
2019-02-24T09:04:59.710Z,8.10
2019-02-24T09:07:31.204Z,8.10
2019-02-24T09:10:02.255Z,8.20
2019-02-24T09:12:34.302Z,8.20
2019-02-24T09:15:05.817Z,8.30
2019-02-24T09:17:36.723Z,8.30
2019-02-24T09:20:10.334Z,8.30
2019-02-24T09:22:41.043Z,8.30
2019-02-24T09:25:12.212Z,8.30
2019-02-24T09:27:45.969Z,8.30
2019-02-24T09:30:16.757Z,8.40
2019-02-24T09:32:47.477Z,8.50
2019-02-24T09:35:18.159Z,8.60
2019-02-24T09:37:48.813Z,8.60
2019-02-24T09:40:19.343Z,8.80
2019-02-24T09:42:50.598Z,8.90
2019-02-24T09:45:21.445Z,9.20
2019-02-24T09:47:52.311Z,9.50
2019-02-24T09:50:22.920Z,10.00
2019-02-24T09:52:53.839Z,11.50
2019-02-24T09:55:24.802Z,13.90
2019-02-24T09:57:55.535Z,17.00
2019-02-24T10:00:26.431Z,20.30
2019-02-24T10:02:57.721Z,23.10
2019-02-24T10:05:28.434Z,25.00
2019-02-24T10:07:59.162Z,26.80
2019-02-24T10:10:30.716Z,28.30
2019-02-24T10:13:02.417Z,29.30
2019-02-24T10:15:33.310Z,27.00
2019-02-24T10:18:05.678Z,24.70
2019-02-24T10:20:36.498Z,22.80
2019-02-24T10:23:07.250Z,21.40
2019-02-24T10:25:39.805Z,20.30
2019-02-24T10:28:10.548Z,19.50
2019-02-24T10:30:41.093Z,18.90
2019-02-24T10:33:11.918Z,18.50
2019-02-24T10:35:42.454Z,18.60
2019-02-24T10:38:13.666Z,19.40
2019-02-24T10:40:44.369Z,20.90
2019-02-24T10:43:16.521Z,22.80
2019-02-24T10:45:48.185Z,24.50
2019-02-24T10:48:20.657Z,25.90
2019-02-24T10:50:52.293Z,26.70
2019-02-24T10:53:22.994Z,27.30
2019-02-24T10:55:53.651Z,27.70
2019-02-24T10:58:34.313Z,27.80
2019-02-24T11:00:58.098Z,27.90
2019-02-24T11:03:28.774Z,27.90
2019-02-24T11:05:59.918Z,27.80
2019-02-24T11:08:30.442Z,27.80
2019-02-24T11:11:02.195Z,27.70
2019-02-24T11:13:32.955Z,27.50
2019-02-24T11:16:03.746Z,27.20
2019-02-24T11:18:34.717Z,26.90
2019-02-24T11:21:07.046Z,26.60
2019-02-24T11:23:37.890Z,26.50
2019-02-24T11:26:08.922Z,26.30
2019-02-24T11:28:39.603Z,26.30
2019-02-24T11:31:10.678Z,26.30
2019-02-24T11:33:41.286Z,26.30
2019-02-24T11:36:11.980Z,26.40
2019-02-24T11:38:45.218Z,26.50
2019-02-24T11:41:16.423Z,26.60
2019-02-24T11:43:47.426Z,26.70
2019-02-24T11:46:17.990Z,26.70
2019-02-24T11:48:49.855Z,26.80
2019-02-24T11:51:20.714Z,26.80
2019-02-24T11:53:53.443Z,27.00
2019-02-24T11:56:25.538Z,27.10
2019-02-24T11:58:56.262Z,27.10
2019-02-24T12:01:27.182Z,27.10
2019-02-24T12:04:00.015Z,27.10
2019-02-24T12:06:30.612Z,27.10
2019-02-24T12:09:05.227Z,27.10
2019-02-24T12:11:35.413Z,27.00
2019-02-24T12:14:06.151Z,26.90
2019-02-24T12:16:36.762Z,26.70
2019-02-24T12:19:11.258Z,26.70
2019-02-24T12:21:41.972Z,26.80
2019-02-24T12:24:12.719Z,26.60
2019-02-24T12:26:43.518Z,26.40
2019-02-24T12:29:14.298Z,26.10
2019-02-24T12:31:44.990Z,25.90
2019-02-24T12:34:15.827Z,25.80
2019-02-24T12:36:48.378Z,25.50
2019-02-24T12:39:19.088Z,25.10
2019-02-24T12:41:50.110Z,24.80
2019-02-24T12:44:20.923Z,24.50
2019-02-24T12:46:51.546Z,24.20
2019-02-24T12:49:22.330Z,24.00
2019-02-24T12:51:53.107Z,23.80
2019-02-24T12:54:25.855Z,23.70
2019-02-24T12:56:57.023Z,23.50
2019-02-24T12:59:28.354Z,23.30
2019-02-24T13:02:05.435Z,23.20
2019-02-24T13:04:31.947Z,23.10
2019-02-24T13:07:02.839Z,22.90
2019-02-24T13:09:33.795Z,22.70
2019-02-24T13:12:04.382Z,22.50
2019-02-24T13:14:35.443Z,22.30
2019-02-24T13:17:06.338Z,22.10
2019-02-24T13:19:37.126Z,21.90
2019-02-24T13:22:08.042Z,21.70
2019-02-24T13:24:38.556Z,21.40
2019-02-24T13:27:09.245Z,21.20
2019-02-24T13:29:39.893Z,20.90
2019-02-24T13:32:14.938Z,20.80
2019-02-24T13:34:43.511Z,20.70
2019-02-24T13:37:14.703Z,20.60
2019-02-24T13:39:45.819Z,20.60
2019-02-24T13:42:16.662Z,20.40
2019-02-24T13:44:47.721Z,20.20
2019-02-24T13:47:18.246Z,20.00
2019-02-24T13:49:49.149Z,19.80
2019-02-24T13:52:21.270Z,19.60
2019-02-24T13:54:52.050Z,19.30
2019-02-24T13:57:22.826Z,19.10
2019-02-24T13:59:54.980Z,18.90
2019-02-24T14:02:25.728Z,18.70
2019-02-24T14:04:56.562Z,18.50
2019-02-24T14:07:27.568Z,18.30
2019-02-24T14:09:58.062Z,18.10
2019-02-24T14:12:29.107Z,17.90
2019-02-24T14:14:59.970Z,17.80
2019-02-24T14:17:30.836Z,17.60
2019-02-24T14:20:01.875Z,17.50
2019-02-24T14:22:32.866Z,17.30
2019-02-24T14:25:03.451Z,17.20
2019-02-24T14:27:34.095Z,17.00
2019-02-24T14:30:05.261Z,16.90
2019-02-24T14:32:36.064Z,16.70
2019-02-24T14:35:08.452Z,16.60
2019-02-24T14:37:39.373Z,16.50
2019-02-24T14:40:10.426Z,16.30
2019-02-24T14:42:40.998Z,16.20
2019-02-24T14:45:14.235Z,16.00
2019-02-24T14:47:45.155Z,15.90
2019-02-24T14:50:16.546Z,15.80
2019-02-24T14:52:47.378Z,15.60
2019-02-24T14:55:18.258Z,15.50
2019-02-24T14:57:49.959Z,15.40
2019-02-24T15:00:21.872Z,15.30
2019-02-24T15:02:52.775Z,15.10
2019-02-24T15:05:24.053Z,15.00
2019-02-24T15:07:54.828Z,14.90
2019-02-24T15:10:25.636Z,14.80
2019-02-24T15:12:57.242Z,14.70
2019-02-24T15:15:32.854Z,14.50
2019-02-24T15:18:00.352Z,14.40
2019-02-24T15:20:31.080Z,14.30
2019-02-24T15:23:03.445Z,14.20
2019-02-24T15:25:34.774Z,14.00
2019-02-24T15:28:05.293Z,13.90
2019-02-24T15:30:35.910Z,13.80
2019-02-24T15:33:06.760Z,13.70
2019-02-24T15:35:39.364Z,13.60
2019-02-24T15:38:11.147Z,13.50
2019-02-24T15:40:42.182Z,13.40
2019-02-24T15:43:13.070Z,13.30
2019-02-24T15:45:43.556Z,13.20
2019-02-24T15:48:14.163Z,13.10
2019-02-24T15:50:45.562Z,13.10
2019-02-24T15:53:16.677Z,13.00
2019-02-24T15:55:47.826Z,12.90
2019-02-24T15:58:19.638Z,12.80
2019-02-24T16:00:50.246Z,12.70
2019-02-24T16:03:21.100Z,12.60
2019-02-24T16:05:51.574Z,12.60
2019-02-24T16:08:22.405Z,12.50
2019-02-24T16:10:53.471Z,12.40
2019-02-24T16:13:24.005Z,12.30
2019-02-24T16:15:54.824Z,12.30
2019-02-24T16:18:25.577Z,12.20
2019-02-24T16:20:56.157Z,12.10
2019-02-24T16:23:26.910Z,12.10
2019-02-24T16:25:57.884Z,12.00
2019-02-24T16:28:29.711Z,12.00
2019-02-24T16:31:00.467Z,11.90
2019-02-24T16:33:31.053Z,11.80
2019-02-24T16:36:01.551Z,11.80
2019-02-24T16:38:32.295Z,11.70
2019-02-24T16:41:03.290Z,11.70
2019-02-24T16:43:34.394Z,11.60
2019-02-24T16:46:04.930Z,11.60
2019-02-24T16:48:35.588Z,11.50
2019-02-24T16:51:06.343Z,11.50
2019-02-24T16:53:37.437Z,11.40
2019-02-24T16:56:08.267Z,11.40
2019-02-24T16:58:39.240Z,11.30
2019-02-24T17:01:09.793Z,11.30
2019-02-24T17:03:40.885Z,11.20
2019-02-24T17:06:11.579Z,11.20
2019-02-24T17:08:42.722Z,11.20
2019-02-24T17:11:13.745Z,11.20
2019-02-24T17:13:45.061Z,11.10
2019-02-24T17:16:16.176Z,11.10
2019-02-24T17:18:46.664Z,11.00
2019-02-24T17:21:17.465Z,11.00
2019-02-24T17:23:50.135Z,11.00
2019-02-24T17:26:20.801Z,10.90
2019-02-24T17:28:51.739Z,10.90
2019-02-24T17:31:28.417Z,10.90
2019-02-24T17:33:57.832Z,10.90
2019-02-24T17:36:29.516Z,10.80
2019-02-24T17:39:01.566Z,10.80
2019-02-24T17:41:33.927Z,10.80
2019-02-24T17:44:04.877Z,10.70
2019-02-24T17:46:35.708Z,10.70
2019-02-24T17:49:06.276Z,10.70
2019-02-24T17:51:37.516Z,10.70
2019-02-24T17:54:08.349Z,10.60
2019-02-24T17:56:39.190Z,10.60
2019-02-24T17:59:10.541Z,10.60
2019-02-24T18:01:41.506Z,10.60
2019-02-24T18:04:12.386Z,10.60
2019-02-24T18:06:43.117Z,10.50
2019-02-24T18:09:13.719Z,10.50
2019-02-24T18:11:44.873Z,10.50
2019-02-24T18:14:15.541Z,10.40
2019-02-24T18:16:47.695Z,10.40
2019-02-24T18:19:18.759Z,10.40
2019-02-24T18:21:49.624Z,10.40
2019-02-24T18:24:20.746Z,10.30
2019-02-24T18:26:51.574Z,10.30
2019-02-24T18:29:22.563Z,10.30
2019-02-24T18:31:53.251Z,10.30
2019-02-24T18:34:24.434Z,10.30
2019-02-24T18:36:55.227Z,10.20
2019-02-24T18:39:25.910Z,10.20
2019-02-24T18:41:56.702Z,10.20
2019-02-24T18:44:27.560Z,10.20
2019-02-24T18:46:58.411Z,10.20
2019-02-24T18:49:29.151Z,10.10
2019-02-24T18:51:59.987Z,10.10
2019-02-24T18:54:34.658Z,10.10
2019-02-24T18:57:05.362Z,10.10
2019-02-24T18:59:36.026Z,10.10
2019-02-24T19:02:07.110Z,10.10
2019-02-24T19:04:38.135Z,10.00
2019-02-24T19:07:08.960Z,10.00
2019-02-24T19:09:39.704Z,10.00
2019-02-24T19:12:10.739Z,10.00
2019-02-24T19:14:42.144Z,10.00
2019-02-24T19:17:12.920Z,10.00
2019-02-24T19:19:45.027Z,10.00
2019-02-24T19:22:15.818Z,10.00
2019-02-24T19:24:46.984Z,9.90
2019-02-24T19:27:17.733Z,9.90
2019-02-24T19:29:49.315Z,9.90
2019-02-24T19:32:20.132Z,9.90
2019-02-24T19:34:50.647Z,9.90
2019-02-24T19:37:21.474Z,9.90
2019-02-24T19:39:53.653Z,9.90
2019-02-24T19:42:24.372Z,9.80
2019-02-24T19:44:55.222Z,9.80
2019-02-24T19:47:26.403Z,9.80
2019-02-24T19:49:57.262Z,9.80
2019-02-24T19:52:28.481Z,9.80
2019-02-24T19:54:59.194Z,9.80
2019-02-24T19:57:30.181Z,9.80
2019-02-24T20:00:00.827Z,9.80
2019-02-24T20:02:32.996Z,9.80
2019-02-24T20:05:04.063Z,9.70
2019-02-24T20:07:34.914Z,9.70
2019-02-24T20:10:06.010Z,9.70
2019-02-24T20:12:37.805Z,9.70
2019-02-24T20:15:11.389Z,9.70
2019-02-24T20:17:43.218Z,9.70
2019-02-24T20:20:14.465Z,9.60
2019-02-24T20:22:45.266Z,9.60
2019-02-24T20:25:16.054Z,9.60
2019-02-24T20:27:47.418Z,9.60
2019-02-24T20:30:21.188Z,9.60
2019-02-24T20:32:52.294Z,9.60
2019-02-24T20:35:23.167Z,9.60
2019-02-24T20:37:54.030Z,9.50
2019-02-24T20:40:24.871Z,9.50
2019-02-24T20:42:55.544Z,9.50
2019-02-24T20:45:26.349Z,9.50
2019-02-24T20:47:57.286Z,9.50
2019-02-24T20:50:28.258Z,9.50
2019-02-24T20:52:59.235Z,9.50
2019-02-24T20:55:30.036Z,9.50
2019-02-24T20:58:00.968Z,9.40
2019-02-24T21:00:37.459Z,9.40
2019-02-24T21:03:08.065Z,9.40
2019-02-24T21:05:38.522Z,9.40
2019-02-24T21:08:09.209Z,9.40
2019-02-24T21:10:39.963Z,9.30
2019-02-24T21:13:10.562Z,9.30
2019-02-24T21:15:41.106Z,9.30
2019-02-24T21:18:11.847Z,9.20
2019-02-24T21:20:42.389Z,9.20
2019-02-24T21:23:13.361Z,9.20
2019-02-24T21:25:44.322Z,9.20
2019-02-24T21:28:16.803Z,9.20
2019-02-24T21:30:48.017Z,9.10
2019-02-24T21:33:18.978Z,9.10
2019-02-24T21:35:49.833Z,9.10
2019-02-24T21:38:20.476Z,9.10
2019-02-24T21:40:51.140Z,9.10
2019-02-24T21:43:21.788Z,9.00
2019-02-24T21:45:52.551Z,9.00
2019-02-24T21:48:23.206Z,9.00
2019-02-24T21:50:54.099Z,9.00
2019-02-24T21:53:24.911Z,9.00
2019-02-24T21:55:55.823Z,9.00
2019-02-24T21:58:26.481Z,9.00
2019-02-24T22:00:57.393Z,8.90
2019-02-24T22:03:30.311Z,8.90
2019-02-24T22:06:00.899Z,8.90
2019-02-24T22:08:31.757Z,8.90
2019-02-24T22:11:02.574Z,8.90
2019-02-24T22:13:33.275Z,8.90
2019-02-24T22:16:04.319Z,8.90
2019-02-24T22:18:35.094Z,8.90
2019-02-24T22:21:06.006Z,8.90
2019-02-24T22:23:37.295Z,8.80
2019-02-24T22:26:09.172Z,8.80
2019-02-24T22:28:39.984Z,8.80
2019-02-24T22:31:10.433Z,8.80
2019-02-24T22:33:41.449Z,8.80
2019-02-24T22:36:11.970Z,8.80
2019-02-24T22:38:42.784Z,8.80
2019-02-24T22:41:13.802Z,8.80
2019-02-24T22:43:44.378Z,8.80
2019-02-24T22:46:16.708Z,8.80
2019-02-24T22:48:47.550Z,8.80
2019-02-24T22:51:18.518Z,8.80
2019-02-24T22:53:48.998Z,8.80
2019-02-24T22:56:19.739Z,8.80
2019-02-24T22:58:50.962Z,8.70
2019-02-24T23:01:32.571Z,8.70
2019-02-24T23:04:11.193Z,8.70
2019-02-24T23:06:42.030Z,8.70
2019-02-24T23:09:18.270Z,8.70
2019-02-24T23:11:49.134Z,8.70
2019-02-24T23:14:22.002Z,8.70
2019-02-24T23:16:52.902Z,8.70
2019-02-24T23:19:23.525Z,8.70
2019-02-24T23:21:54.688Z,8.60
2019-02-24T23:24:25.695Z,8.60
2019-02-24T23:26:56.508Z,8.70
2019-02-24T23:29:27.542Z,8.60
2019-02-24T23:31:58.522Z,8.60
2019-02-24T23:34:34.540Z,8.70
2019-02-24T23:37:05.157Z,8.60
2019-02-24T23:39:35.680Z,8.60
2019-02-24T23:42:06.852Z,8.60
2019-02-24T23:44:37.570Z,8.60
2019-02-24T23:47:08.266Z,8.60
2019-02-24T23:49:39.287Z,8.60
2019-02-24T23:52:10.014Z,8.60
2019-02-24T23:54:41.561Z,8.60
2019-02-24T23:57:12.454Z,8.60
2019-02-24T23:59:45.116Z,8.60
